East Dundee, Illinois
Current Conditions -  °F | °C
As of 4:52 AM on Sunday 23 Nov 2014 (Local Time) from KDPA Reporting Station
Overcast Overcast  
Wind Chill: 43°   Ceiling: 5000
Heat Index: 48°   Visibility: 9mi
Dew Point: 43°   Wind: 12mph
Humidity: 83%   Direction: 180°S
Pressure: 29.75"   Gusts: NA
Location:  42.1081°N, 88.3234°W
Report Text: KDPA 231052Z 18010KT 9SM OVC050 09/06 A2975 RMK AO2 SLP075 T00890061
Loading
Personal Weather Stations






























Interactive Weather Map New forecast layout! Learn more

10-Day Weather Forecast

Advertisements
Track Severe Weather on mobile